Time;durP1;ratioP1;P1;durP2;ratioP2;P2;SDS_P1;SDS_P2;PMS_P1;PMS_P2;Temp;Humidity;BMP_temperature;BMP_pressure;BME280_temperature;BME280_humidity;BME280_pressure;Samples;Min_cycle;Max_cycle;Signal;HPM_P1;HPM_P2
2022/07/20 00:01:04;;;;;;;6.75;2.50;;;;;;;28.73;29.64;100385.06;4131992;28;20042;-70
2022/07/20 00:03:09;;;;;;;5.00;2.70;;;;;;;28.68;29.50;100387.16;4131225;28;20046;-70
2022/07/20 00:05:12;;;;;;;4.30;2.47;;;;;;;28.55;30.13;100389.72;4131985;28;20568;-71
2022/07/20 00:07:15;;;;;;;5.30;2.75;;;;;;;28.50;29.36;100386.47;4131861;28;20034;-70
2022/07/20 00:11:38;;;;;;;6.65;3.17;;;;;;;28.44;29.67;100387.69;4131330;28;20048;-70
2022/07/20 00:13:46;;;;;;;9.60;2.85;;;;;;;28.44;30.27;100387.69;4130508;28;20038;-70
2022/07/20 00:15:49;;;;;;;7.45;2.83;;;;;;;28.35;30.16;100385.59;4131954;28;20133;-70
2022/07/20 00:17:52;;;;;;;6.95;3.13;;;;;;;28.26;30.33;100384.34;4131893;28;20456;-70
2022/07/20 00:19:55;;;;;;;5.63;3.25;;;;;;;28.23;30.35;100389.00;4130618;28;20038;-70
2022/07/20 00:21:58;;;;;;;10.05;3.47;;;;;;;28.26;30.31;100386.19;4130916;28;20042;-70
2022/07/20 00:24:01;;;;;;;5.22;2.92;;;;;;;28.23;30.21;100384.53;4131756;28;20450;-70
2022/07/20 00:26:04;;;;;;;7.88;2.97;;;;;;;28.24;30.35;100386.28;4131135;28;20058;-70
2022/07/20 00:28:06;;;;;;;4.35;2.70;;;;;;;28.15;30.93;100384.13;4131694;28;20517;-70
2022/07/20 00:30:13;;;;;;;5.18;3.40;;;;;;;28.15;30.87;100386.81;4131727;28;20092;-70
2022/07/20 00:32:15;;;;;;;6.22;2.90;;;;;;;28.13;30.46;100384.22;4129881;28;20042;-70
2022/07/20 00:34:18;;;;;;;6.13;3.20;;;;;;;28.15;30.64;100389.47;4130307;28;20046;-71
2022/07/20 00:36:22;;;;;;;4.32;2.75;;;;;;;28.11;30.77;100383.47;4131561;28;20046;-70
2022/07/20 00:38:25;;;;;;;8.25;3.08;;;;;;;28.09;31.12;100382.69;4131673;28;20045;-70
2022/07/20 00:40:28;;;;;;;6.57;3.15;;;;;;;28.08;31.06;100383.66;4130277;28;20132;-70
2022/07/20 00:42:32;;;;;;;8.25;2.67;;;;;;;28.04;30.99;100371.44;4113590;28;20046;-70
2022/07/20 00:44:34;;;;;;;9.25;2.90;;;;;;;28.01;30.66;100375.16;4131563;28;20046;-70
2022/07/20 00:46:41;;;;;;;6.75;3.35;;;;;;;28.00;30.52;100375.25;4131545;28;20043;-70
2022/07/20 00:48:44;;;;;;;3.75;2.85;;;;;;;27.96;31.35;100381.69;4130357;28;20560;-71
2022/07/20 00:50:47;;;;;;;9.65;3.33;;;;;;;27.95;31.04;100372.81;4131520;28;20070;-70
2022/07/20 00:52:50;;;;;;;10.60;3.05;;;;;;;27.90;31.07;100371.38;4113526;28;20039;-70
2022/07/20 00:54:54;;;;;;;6.00;3.17;;;;;;;27.87;31.51;100367.91;4131571;28;20042;-70
2022/07/20 00:56:57;;;;;;;;;;;;;;;27.66;31.54;100382.56;4131899;28;20073;-70
2022/07/20 00:59:02;;;;;;;6.72;2.95;;;;;;;27.65;31.82;100373.66;4130206;28;19921;-70
2022/07/20 01:01:05;;;;;;;5.88;2.90;;;;;;;27.66;31.55;100371.88;4131559;28;20042;-71
2022/07/20 01:03:09;;;;;;;6.63;2.70;;;;;;;27.65;31.99;100370.16;4130684;28;20431;-71
2022/07/20 01:05:14;;;;;;;8.82;3.30;;;;;;;27.58;32.05;100366.13;4130241;28;20042;-71
2022/07/20 01:07:18;;;;;;;6.47;3.20;;;;;;;27.54;31.95;100370.78;4131437;28;20170;-70
2022/07/20 01:09:21;;;;;;;5.38;2.80;;;;;;;27.52;32.16;100364.66;4130189;28;20046;-70
2022/07/20 01:11:24;;;;;;;8.38;3.38;;;;;;;27.54;32.42;100364.56;4131449;28;20042;-71
2022/07/20 01:13:27;;;;;;;5.38;3.13;;;;;;;27.52;31.83;100365.53;4130552;28;20084;-70
2022/07/20 01:15:29;;;;;;;4.57;3.10;;;;;;;27.53;31.92;100361.06;4131350;28;20512;-70
2022/07/20 01:17:33;;;;;;;8.30;3.75;;;;;;;27.50;31.86;100364.75;4130116;28;20145;-70
2022/07/20 01:19:37;;;;;;;4.93;2.85;;;;;;;27.47;32.28;100361.41;4131288;28;20515;-70
2022/07/20 01:21:41;;;;;;;6.47;3.22;;;;;;;27.43;32.21;100351.84;4129540;28;20085;-70
2022/07/20 01:23:44;;;;;;;9.23;3.42;;;;;;;27.40;32.63;100355.56;4146106;28;20069;-70
2022/07/20 01:25:47;;;;;;;6.38;2.85;;;;;;;27.41;32.67;100349.28;4131373;28;20125;-70
2022/07/20 01:27:50;;;;;;;9.68;4.07;;;;;;;27.38;32.30;100354.81;4131259;28;20038;-70
2022/07/20 01:29:53;;;;;;;10.85;3.50;;;;;;;27.44;31.78;100351.78;4130007;28;20465;-71
2022/07/20 01:31:56;;;;;;;6.82;3.50;;;;;;;27.47;31.55;100353.41;4130531;28;20600;-71
2022/07/20 01:33:59;;;;;;;2.67;2.33;;;;;;;27.48;32.06;100355.09;4131133;28;20092;-70
2022/07/20 01:36:02;;;;;;;7.00;3.72;;;;;;;27.51;32.08;100350.47;4131214;28;20046;-70
2022/07/20 01:38:06;;;;;;;7.20;3.17;;;;;;;27.46;31.94;100349.84;4134296;28;20051;-70
2022/07/20 01:40:10;;;;;;;6.88;3.17;;;;;;;27.44;32.40;100349.09;4133067;28;20089;-70
2022/07/20 01:42:13;;;;;;;6.50;3.05;;;;;;;27.42;32.46;100347.47;4133430;28;20125;-70
2022/07/20 01:44:16;;;;;;;10.27;3.88;;;;;;;27.37;32.16;100353.06;4132916;28;20042;-70
2022/07/20 01:46:19;;;;;;;7.55;3.30;;;;;;;27.36;32.90;100355.84;4134063;28;20129;-70
2022/07/20 01:48:22;;;;;;;8.23;4.03;;;;;;;27.32;32.50;100357.75;4132794;28;20050;-70
2022/07/20 01:50:25;;;;;;;8.32;3.33;;;;;;;27.28;32.77;100348.25;4134008;28;20042;-70
2022/07/20 01:52:28;;;;;;;6.40;3.35;;;;;;;27.27;33.32;100349.19;4132182;28;20034;-70
2022/07/20 01:54:32;;;;;;;10.88;3.08;;;;;;;27.28;32.93;100356.25;4133889;28;20166;-70
2022/07/20 01:56:34;;;;;;;;;;;;;;;27.07;33.64;100359.19;4134420;28;20072;-71
2022/07/20 01:58:37;;;;;;;7.60;3.33;;;;;;;27.11;33.54;100352.72;4134055;28;19933;-71
2022/07/20 02:00:41;;;;;;;7.68;3.30;;;;;;;27.14;33.44;100357.03;4132777;28;20050;-70
2022/07/20 02:02:44;;;;;;;8.68;3.92;;;;;;;27.16;33.32;100350.66;4133119;28;20088;-70
2022/07/20 02:04:47;;;;;;;6.13;3.40;;;;;;;27.18;33.20;100350.56;4133792;28;20046;-70
2022/07/20 02:06:50;;;;;;;3.67;2.80;;;;;;;27.15;33.57;100351.59;4133886;28;20044;-70
2022/07/20 02:08:53;;;;;;;7.03;3.50;;;;;;;27.16;33.54;100355.13;4133773;28;20088;-70
2022/07/20 02:10:57;;;;;;;7.78;3.53;;;;;;;27.15;32.96;100351.59;4133784;28;20034;-70
2022/07/20 02:13:00;;;;;;;;;;;;;;;27.00;33.55;100355.16;4132045;28;20512;-70
2022/07/20 02:15:04;;;;;;;4.85;3.25;;;;;;;27.03;33.40;100365.66;4132704;28;19925;-70
2022/07/20 02:17:06;;;;;;;6.43;3.08;;;;;;;27.03;33.56;100364.75;4133962;28;20245;-71
2022/07/20 02:19:09;;;;;;;7.88;3.53;;;;;;;27.02;33.22;100363.91;4133781;28;20096;-70
2022/07/20 02:21:12;;;;;;;7.25;3.10;;;;;;;27.04;33.52;100362.00;4148599;28;20077;-72
2022/07/20 02:23:15;;;;;;;8.55;4.18;;;;;;;27.04;33.39;100364.69;4132686;28;20488;-70
2022/07/20 02:25:18;;;;;;;8.68;3.58;;;;;;;26.98;33.17;100368.56;4132310;28;20065;-70
2022/07/20 02:27:23;;;;;;;6.25;3.50;;;;;;;26.92;33.18;100365.38;4133537;28;20045;-70
2022/07/20 02:29:25;;;;;;;;;;;;;;;26.80;33.19;100375.78;4133949;28;20129;-71
2022/07/20 02:31:28;;;;;;;6.25;3.50;;;;;;;26.88;33.66;100377.16;4133500;28;19932;-70
2022/07/20 02:33:35;;;;;;;5.70;3.63;;;;;;;26.95;32.83;100374.06;4132837;28;20042;-71
2022/07/20 02:35:38;;;;;;;6.50;3.47;;;;;;;26.97;33.09;100366.84;4133401;28;20078;-70
2022/07/20 02:37:41;;;;;;;5.50;3.30;;;;;;;26.96;33.08;100375.78;4133599;28;20129;-71
2022/07/20 02:39:44;;;;;;;6.38;3.72;;;;;;;26.97;33.47;100376.63;4133261;28;20421;-70
2022/07/20 02:41:47;;;;;;;10.50;4.35;;;;;;;26.96;33.84;100381.13;4132547;28;20475;-70
2022/07/20 02:43:51;;;;;;;7.63;3.78;;;;;;;26.97;33.48;100379.31;4133100;28;20045;-70
2022/07/20 02:45:59;;;;;;;5.45;3.20;;;;;;;26.95;33.75;100381.22;4132093;28;20117;-70
2022/07/20 02:48:03;;;;;;;7.85;3.58;;;;;;;26.93;33.69;100378.63;4132569;28;20038;-70
2022/07/20 02:50:07;;;;;;;6.07;3.78;;;;;;;26.88;34.42;100382.50;4133123;28;20069;-70
2022/07/20 02:52:11;;;;;;;5.43;3.80;;;;;;;26.82;34.35;100375.69;4131151;28;20050;-70
2022/07/20 02:54:14;;;;;;;9.52;4.13;;;;;;;26.78;34.54;100372.34;4115631;28;20039;-71
2022/07/20 02:56:17;;;;;;;8.52;3.30;;;;;;;26.71;35.04;100370.97;4133281;28;20065;-70
2022/07/20 02:58:21;;;;;;;5.80;3.55;;;;;;;26.63;35.57;100371.34;4133076;28;20077;-71
2022/07/20 03:00:25;;;;;;;8.27;4.18;;;;;;;26.60;35.28;100363.50;4131759;28;20044;-70
2022/07/20 03:02:28;;;;;;;6.60;3.53;;;;;;;26.53;35.67;100359.44;4131065;28;20061;-70
2022/07/20 03:04:31;;;;;;;7.82;4.30;;;;;;;26.50;35.51;100370.28;4115287;28;20420;-70
2022/07/20 03:06:34;;;;;;;9.55;3.88;;;;;;;26.42;35.67;100360.03;4132903;28;20132;-70
2022/07/20 03:08:37;;;;;;;7.40;3.75;;;;;;;26.38;35.73;100362.94;4132851;28;20042;-71
2022/07/20 03:10:40;;;;;;;7.95;3.83;;;;;;;26.35;36.09;100363.97;4131650;28;20053;-70
2022/07/20 03:12:43;;;;;;;6.13;3.42;;;;;;;26.27;36.29;100360.88;4130880;28;20045;-69
2022/07/20 03:14:46;;;;;;;4.93;3.60;;;;;;;26.27;36.35;100366.19;4132693;28;20554;-70
2022/07/20 03:16:51;;;;;;;6.15;4.05;;;;;;;26.26;36.16;100369.78;4131576;28;20077;-70
2022/07/20 03:18:54;;;;;;;9.48;3.35;;;;;;;26.21;36.38;100377.16;4131703;28;20050;-70
2022/07/20 03:20:58;;;;;;;13.65;4.03;;;;;;;26.21;36.55;100371.81;4132708;28;20109;-70
2022/07/20 03:23:02;;;;;;;12.05;3.75;;;;;;;26.18;36.61;100371.97;4131875;28;20057;-70
2022/07/20 03:25:06;;;;;;;9.52;4.18;;;;;;;26.14;36.65;100376.63;4132659;28;20042;-70
2022/07/20 03:27:09;;;;;;;7.90;3.92;;;;;;;26.11;36.89;100377.66;4132567;28;20518;-70
2022/07/20 03:29:13;;;;;;;8.95;4.60;;;;;;;26.09;36.74;100384.88;4131418;28;20047;-70
2022/07/20 03:31:15;;;;;;;6.93;3.63;;;;;;;26.07;36.86;100378.75;4131489;28;20166;-70
2022/07/20 03:33:27;;;;;;;11.50;4.03;;;;;;;26.04;37.00;100386.91;4130706;28;20045;-70
2022/07/20 03:35:30;;;;;;;;;;;;;;;25.86;37.29;100394.00;4131796;28;20249;-70
2022/07/20 03:37:32;;;;;;;9.27;3.70;;;;;;;25.88;37.30;100385.94;4131150;28;20322;-70
2022/07/20 03:39:35;;;;;;;8.57;4.03;;;;;;;25.90;37.38;100397.34;4132315;28;20049;-69
2022/07/20 03:41:38;;;;;;;9.18;3.75;;;;;;;25.92;37.29;100393.69;4131702;28;20074;-69
2022/07/20 03:43:41;;;;;;;6.90;3.95;;;;;;;25.95;37.33;100387.34;4132063;28;20042;-69
2022/07/20 03:45:44;;;;;;;9.55;4.45;;;;;;;25.93;37.15;100394.53;4132263;28;20041;-69
2022/07/20 03:47:47;;;;;;;8.00;3.47;;;;;;;25.89;37.24;100395.63;4131106;28;20440;-69
2022/07/20 03:49:51;;;;;;;8.23;3.60;;;;;;;25.86;37.63;100393.13;4132202;28;20101;-69
2022/07/20 03:51:54;;;;;;;10.93;4.15;;;;;;;25.83;38.10;100395.94;4131427;28;20129;-69
2022/07/20 03:53:57;;;;;;;9.55;3.92;;;;;;;25.78;38.28;100385.53;4132054;28;20038;-69
2022/07/20 03:56:00;;;;;;;8.13;4.10;;;;;;;25.75;38.41;100391.88;4131008;28;20054;-69
2022/07/20 03:58:03;;;;;;;8.30;3.95;;;;;;;25.75;38.16;100394.53;4130915;28;20125;-69
2022/07/20 04:00:08;;;;;;;6.45;3.30;;;;;;;25.76;37.89;100393.59;4132071;28;20404;-69
2022/07/20 04:02:11;;;;;;;7.90;3.90;;;;;;;25.68;37.89;100395.78;4131329;28;20046;-69
2022/07/20 04:04:21;;;;;;;8.32;4.20;;;;;;;25.68;37.89;100395.78;4132183;28;20283;-69
2022/07/20 04:06:25;;;;;;;9.48;3.90;;;;;;;25.64;38.06;100402.19;4132062;28;20038;-69
2022/07/20 04:08:28;;;;;;;;;;;;;;;25.49;38.35;100394.97;4132501;28;20404;-69
2022/07/20 04:10:31;;;;;;;14.88;4.25;;;;;;;25.56;38.25;100399.06;4130773;28;19921;-69
2022/07/20 04:12:34;;;;;;;7.65;4.30;;;;;;;25.59;38.19;100404.22;4131271;28;20563;-69
2022/07/20 04:14:37;;;;;;;11.70;4.25;;;;;;;25.59;37.88;100406.88;4131724;28;20043;-70
2022/07/20 04:16:39;;;;;;;8.63;4.60;;;;;;;25.60;37.76;100404.16;4131768;28;20074;-70
2022/07/20 04:18:42;;;;;;;11.18;3.80;;;;;;;25.61;37.75;100412.97;4131952;28;20093;-70
2022/07/20 04:20:45;;;;;;;6.80;3.72;;;;;;;25.62;38.24;100409.41;4130542;28;20504;-69
2022/07/20 04:22:49;;;;;;;8.45;3.97;;;;;;;25.63;38.78;100408.47;4130930;28;20133;-70
2022/07/20 04:24:52;;;;;;;;;;;;;;;25.44;39.67;100408.50;4114873;28;20046;-70
2022/07/20 04:26:55;;;;;;;6.57;3.88;;;;;;;25.49;40.02;100416.25;4131844;28;20375;-70
2022/07/20 04:28:58;;;;;;;6.07;3.80;;;;;;;25.51;39.85;100415.25;4130557;28;20042;-69
2022/07/20 04:31:01;;;;;;;6.80;3.65;;;;;;;25.53;39.59;100409.84;4131709;28;20045;-70
2022/07/20 04:33:04;;;;;;;8.98;3.70;;;;;;;25.56;39.05;100412.38;4131044;28;20046;-69
2022/07/20 04:35:08;;;;;;;7.35;3.83;;;;;;;25.59;39.21;100414.88;4130371;28;20512;-70
2022/07/20 04:37:12;;;;;;;11.32;4.30;;;;;;;25.58;39.66;100415.81;4130444;28;20062;-69
2022/07/20 04:39:16;;;;;;;9.85;3.78;;;;;;;25.57;40.16;100417.63;4131594;28;20076;-71
2022/07/20 04:41:19;;;;;;;;;;;;;;;25.40;41.12;100414.91;4130838;28;20042;-69
2022/07/20 04:43:21;;;;;;;7.72;4.05;;;;;;;25.47;40.50;100416.34;4129655;28;20298;-70
2022/07/20 04:45:25;;;;;;;7.65;3.95;;;;;;;25.51;40.06;100419.69;4131694;28;20046;-69
2022/07/20 04:47:27;;;;;;;11.55;4.88;;;;;;;25.54;40.30;100420.44;4131583;28;20066;-69
2022/07/20 04:49:31;;;;;;;6.97;4.03;;;;;;;25.58;40.13;100416.69;4131557;28;20455;-72
2022/07/20 04:51:34;;;;;;;11.02;3.72;;;;;;;25.58;39.68;100414.03;4131540;28;20043;-70
2022/07/20 04:53:36;;;;;;;11.27;3.83;;;;;;;25.57;39.87;100419.44;4129988;28;20081;-70
2022/07/20 04:55:41;;;;;;;9.02;3.85;;;;;;;25.55;40.01;100413.28;4131482;28;20042;-70
2022/07/20 04:57:44;;;;;;;7.95;4.13;;;;;;;25.55;39.71;100416.84;4131497;28;20046;-69
2022/07/20 04:59:47;;;;;;;15.82;4.45;;;;;;;25.54;39.54;100414.22;4131590;28;20480;-70
2022/07/20 05:01:50;;;;;;;9.27;3.47;;;;;;;25.54;39.80;100406.22;4129556;28;20054;-69
2022/07/20 05:03:53;;;;;;;7.87;4.13;;;;;;;25.54;40.06;100412.44;4130251;28;20050;-70
2022/07/20 05:05:56;;;;;;;8.55;4.20;;;;;;;25.59;39.70;100414.88;4130113;28;20297;-70
2022/07/20 05:07:59;;;;;;;10.55;4.07;;;;;;;25.59;39.33;100410.41;4131431;28;20489;-69
2022/07/20 05:10:02;;;;;;;7.43;3.88;;;;;;;25.62;39.62;100422.72;4131552;28;20069;-70
2022/07/20 05:12:07;;;;;;;8.40;3.33;;;;;;;25.70;39.32;100420.53;4130887;28;20122;-69
2022/07/20 05:14:10;;;;;;;10.60;4.28;;;;;;;25.74;38.79;100422.13;4116985;28;20404;-70
2022/07/20 05:16:13;;;;;;;8.77;3.60;;;;;;;25.78;38.96;100431.66;4134584;28;20034;-70
2022/07/20 05:18:16;;;;;;;6.68;3.67;;;;;;;25.80;39.15;100428.91;4133373;28;20125;-70
2022/07/20 05:20:19;;;;;;;6.53;4.20;;;;;;;25.76;39.08;100441.53;4134494;28;20525;-70
2022/07/20 05:22:22;;;;;;;10.00;3.78;;;;;;;25.63;38.11;100451.06;4133721;28;20137;-71
2022/07/20 05:24:25;;;;;;;11.30;4.25;;;;;;;25.54;37.63;100452.38;4134254;28;20046;-70
2022/07/20 05:26:28;;;;;;;7.78;4.07;;;;;;;25.50;37.59;100452.59;4133192;28;20042;-71
2022/07/20 05:28:33;;;;;;;7.57;4.05;;;;;;;25.53;37.92;100452.44;4134397;28;20046;-70
2022/07/20 05:30:36;;;;;;;9.13;3.65;;;;;;;25.64;37.61;100441.25;4134347;28;20045;-72
2022/07/20 05:32:39;;;;;;;7.80;3.88;;;;;;;25.73;38.07;100451.44;4133587;28;20048;-71
2022/07/20 05:34:41;;;;;;;8.45;4.13;;;;;;;25.71;38.89;100456.84;4132933;28;20519;-70
2022/07/20 05:36:45;;;;;;;8.48;3.83;;;;;;;25.63;37.63;100459.06;4133001;28;20077;-71
2022/07/20 05:38:48;;;;;;;7.30;3.95;;;;;;;25.64;38.19;100466.06;4134084;28;20041;-70
2022/07/20 05:40:51;;;;;;;9.88;4.40;;;;;;;25.73;38.78;100468.31;4134185;28;20125;-70
2022/07/20 05:42:54;;;;;;;8.48;3.63;;;;;;;25.84;39.87;100459.78;4132060;28;20149;-70
2022/07/20 05:44:58;;;;;;;9.55;4.28;;;;;;;25.92;39.72;100467.41;4134008;28;20038;-69
2022/07/20 05:47:00;;;;;;;;;;;;;;;25.79;39.91;100464.50;4134582;28;20046;-69
2022/07/20 05:49:03;;;;;;;11.95;3.95;;;;;;;25.90;39.57;100461.28;4134032;28;19921;-69
2022/07/20 05:51:06;;;;;;;9.93;3.97;;;;;;;26.00;39.97;100454.59;4134050;28;20065;-70
2022/07/20 05:53:11;;;;;;;9.13;3.78;;;;;;;26.05;39.80;100457.91;4133335;28;20385;-70
2022/07/20 05:55:14;;;;;;;7.88;3.80;;;;;;;26.12;39.34;100458.44;4133996;28;20069;-70
2022/07/20 05:57:17;;;;;;;11.73;4.60;;;;;;;26.17;38.55;100461.75;4133956;28;20065;-71
2022/07/20 05:59:20;;;;;;;11.65;4.15;;;;;;;26.21;39.03;100463.31;4148854;28;20049;-70
2022/07/20 06:01:27;;;;;;;10.95;3.67;;;;;;;26.27;39.64;100451.47;4133806;28;20046;-70
2022/07/20 06:03:30;;;;;;;11.05;4.43;;;;;;;26.29;39.91;100450.44;4133076;28;20038;-70
2022/07/20 06:05:33;;;;;;;10.32;4.38;;;;;;;26.29;41.44;100454.91;4133958;28;20039;-71
2022/07/20 06:07:36;;;;;;;12.87;4.30;;;;;;;26.23;39.05;100460.56;4133790;28;20056;-70
2022/07/20 06:09:47;;;;;;;15.27;4.47;;;;;;;26.26;38.09;100466.59;4132587;28;20515;-70
2022/07/20 06:11:50;;;;;;;19.25;4.88;;;;;;;26.37;37.98;100462.50;4133073;28;20049;-70
2022/07/20 06:13:53;;;;;;;13.70;4.28;;;;;;;26.43;37.53;100471.06;4116021;28;20039;-71
2022/07/20 06:15:56;;;;;;;10.18;4.18;;;;;;;26.36;37.86;100479.47;4133541;28;20113;-70
2022/07/20 06:18:01;;;;;;;9.07;4.10;;;;;;;26.42;37.89;100472.00;4133496;28;20403;-70
2022/07/20 06:20:07;;;;;;;9.88;4.28;;;;;;;26.52;38.10;100466.16;4133479;28;20050;-70
2022/07/20 06:22:10;;;;;;;14.45;4.65;;;;;;;26.59;38.18;100472.91;4132761;28;20042;-70
2022/07/20 06:24:14;;;;;;;8.68;3.78;;;;;;;26.67;38.40;100468.03;4132094;28;20074;-72
2022/07/20 06:26:22;;;;;;;9.52;3.85;;;;;;;26.74;38.13;100472.13;4133417;28;20070;-70
2022/07/20 06:28:25;;;;;;;12.60;3.88;;;;;;;26.75;38.71;100476.53;4133302;28;20488;-70
2022/07/20 06:30:28;;;;;;;11.27;3.88;;;;;;;26.78;38.37;100472.81;4133267;28;20146;-70
2022/07/20 06:32:31;;;;;;;8.52;3.60;;;;;;;26.82;38.05;100472.59;4131370;28;20049;-71
2022/07/20 06:34:36;;;;;;;11.37;4.23;;;;;;;26.87;37.84;100474.13;4133314;28;20054;-70
2022/07/20 06:36:38;;;;;;;;;;;;;;;26.80;38.15;100476.28;4132471;28;20500;-69
2022/07/20 06:38:41;;;;;;;6.03;3.78;;;;;;;26.92;38.41;100482.75;4133284;28;20402;-70
2022/07/20 06:40:44;;;;;;;8.02;3.53;;;;;;;27.01;38.01;100479.59;4131940;28;20057;-70
2022/07/20 06:42:47;;;;;;;11.70;3.80;;;;;;;27.05;38.05;100475.81;4132221;28;20041;-69
2022/07/20 06:44:51;;;;;;;6.78;3.50;;;;;;;27.11;38.63;100478.13;4131898;28;20137;-70
2022/07/20 06:46:54;;;;;;;9.80;3.60;;;;;;;27.14;38.55;100480.63;4132076;28;20138;-70
2022/07/20 06:49:00;;;;;;;6.97;3.40;;;;;;;27.19;38.25;100480.41;4133505;28;20411;-70
2022/07/20 06:51:04;;;;;;;6.95;3.45;;;;;;;27.23;38.53;100473.06;4133065;28;20484;-70
2022/07/20 06:53:07;;;;;;;;;;;;;;;27.20;38.66;100474.09;4132593;28;20038;-71
2022/07/20 06:55:10;;;;;;;8.10;3.60;;;;;;;27.31;38.22;100474.38;4133305;28;19964;-70
2022/07/20 06:57:14;;;;;;;7.78;3.63;;;;;;;27.33;38.17;100471.63;4131629;28;20065;-70
2022/07/20 06:59:17;;;;;;;7.07;3.87;;;;;;;27.42;38.48;100468.47;4131606;28;20056;-71
2022/07/20 07:01:19;;;;;;;11.65;3.72;;;;;;;27.51;37.78;100473.31;4131734;28;20046;-71
2022/07/20 07:03:23;;;;;;;8.45;3.70;;;;;;;27.60;37.63;100479.03;4132085;28;20042;-70
2022/07/20 07:05:26;;;;;;;10.70;3.50;;;;;;;27.66;37.95;100482.25;4132752;28;20035;-71
2022/07/20 07:07:30;;;;;;;11.02;3.95;;;;;;;27.70;37.97;100477.59;4132725;28;20050;-71
2022/07/20 07:09:33;;;;;;;8.52;4.07;;;;;;;27.82;38.64;100460.84;4132781;28;20049;-71
2022/07/20 07:11:36;;;;;;;10.30;4.18;;;;;;;27.99;37.20;100472.38;4132553;28;20050;-71
2022/07/20 07:13:39;;;;;;;11.05;4.55;;;;;;;28.02;37.04;100466.84;4132448;28;20038;-71
2022/07/20 07:15:42;;;;;;;7.90;3.72;;;;;;;27.97;37.36;100480.50;4132798;28;20066;-71
2022/07/20 07:17:45;;;;;;;6.82;4.03;;;;;;;27.92;37.17;100476.34;4132701;28;20453;-72
2022/07/20 07:19:48;;;;;;;9.20;4.35;;;;;;;27.85;36.99;100482.03;4115240;28;20075;-71
2022/07/20 07:21:51;;;;;;;5.43;3.10;;;;;;;27.95;37.42;100479.72;4132052;28;20046;-72
2022/07/20 07:23:55;;;;;;;7.57;3.95;;;;;;;28.04;37.34;100478.34;4131364;28;20122;-72
2022/07/20 07:25:58;;;;;;;7.30;3.65;;;;;;;28.13;36.96;100475.13;4132525;28;20400;-71
2022/07/20 07:28:01;;;;;;;10.60;3.90;;;;;;;28.18;37.04;100478.38;4132452;28;20097;-72
2022/07/20 07:30:05;;;;;;;6.13;3.58;;;;;;;28.20;36.93;100481.81;4132435;28;20069;-71
2022/07/20 07:32:08;;;;;;;5.75;3.55;;;;;;;28.30;36.84;100489.28;4131740;28;20038;-71
2022/07/20 07:34:11;;;;;;;7.93;3.60;;;;;;;28.40;36.74;100487.78;4130802;28;20141;-74
2022/07/20 07:36:15;;;;;;;8.35;3.45;;;;;;;28.48;37.04;100496.22;4132475;28;20515;-73
2022/07/20 07:38:17;;;;;;;11.88;3.58;;;;;;;28.56;37.52;100488.59;4132441;28;20559;-72
2022/07/20 07:40:22;;;;;;;5.50;3.60;;;;;;;28.64;37.85;100482.78;4132375;28;20096;-73
2022/07/20 07:42:25;;;;;;;8.30;3.45;;;;;;;28.66;37.60;100488.06;4131516;28;20046;-71
2022/07/20 07:44:28;;;;;;;7.73;3.30;;;;;;;28.66;36.98;100488.91;4132272;28;20382;-70
2022/07/20 07:46:31;;;;;;;7.03;3.75;;;;;;;28.79;37.68;100485.47;4130988;28;20305;-70
2022/07/20 07:48:34;;;;;;;5.75;3.40;;;;;;;28.85;36.82;100485.94;4132269;28;20046;-70
2022/07/20 07:50:37;;;;;;;7.05;3.42;;;;;;;28.86;36.64;100481.47;4132200;28;20101;-71
2022/07/20 07:52:40;;;;;;;6.53;3.58;;;;;;;28.92;36.63;100481.09;4131466;28;20130;-72
2022/07/20 07:54:57;;;;;;;6.63;3.13;;;;;;;29.02;35.26;100481.38;4131011;28;20034;-71
2022/07/20 07:57:02;;;;;;;5.50;3.17;;;;;;;29.11;35.43;100480.78;4132100;28;20514;-71
2022/07/20 07:59:05;;;;;;;8.23;3.47;;;;;;;29.08;35.32;100486.34;4132101;28;20049;-71
2022/07/20 08:01:28;;;;;;;9.80;3.67;;;;;;;29.14;34.96;100485.94;4130916;28;20057;-72
2022/07/20 08:03:31;;;;;;;10.20;3.80;;;;;;;29.28;35.56;100486.91;4129768;28;20073;-71
2022/07/20 08:05:35;;;;;;;13.60;3.78;;;;;;;29.31;34.15;100481.38;4131885;28;20035;-71
2022/07/20 08:07:40;;;;;;;8.35;3.20;;;;;;;29.37;34.10;100476.47;4132006;28;20038;-71
2022/07/20 08:09:45;;;;;;;8.85;3.60;;;;;;;29.47;34.22;100474.06;4130764;28;20524;-72
2022/07/20 08:11:48;;;;;;;10.32;3.72;;;;;;;29.54;34.15;100475.41;4129950;28;20042;-72
2022/07/20 08:13:53;;;;;;;6.07;3.05;;;;;;;29.64;34.51;100478.31;4131789;28;20440;-71
2022/07/20 08:15:57;;;;;;;9.63;3.75;;;;;;;29.76;34.35;100477.50;4131796;28;20056;-70
2022/07/20 08:18:00;;;;;;;9.07;3.92;;;;;;;29.88;33.46;100477.69;4131781;28;20133;-71
2022/07/20 08:20:05;;;;;;;12.07;4.38;;;;;;;29.97;32.88;100476.22;4130741;28;20042;-71
2022/07/20 08:22:08;;;;;;;8.85;4.13;;;;;;;29.90;33.45;100476.63;4129771;28;20536;-73
2022/07/20 08:24:14;;;;;;;6.90;3.90;;;;;;;29.93;33.43;100476.44;4130623;28;20042;-71
2022/07/20 08:26:17;;;;;;;9.75;3.63;;;;;;;30.07;33.53;100477.31;4131704;28;20069;-71
2022/07/20 08:28:21;;;;;;;8.50;4.25;;;;;;;30.08;33.51;100479.03;4130528;28;20588;-73
2022/07/20 08:30:26;;;;;;;10.05;3.92;;;;;;;30.09;33.60;100486.97;4131588;28;20081;-72
2022/07/20 08:32:48;;;;;;;8.85;3.90;;;;;;;30.16;33.15;100486.56;4131119;28;20034;-72
2022/07/20 08:34:51;;;;;;;11.48;4.07;;;;;;;30.23;33.47;100494.09;4131656;28;20551;-71
2022/07/20 08:36:54;;;;;;;7.90;4.00;;;;;;;30.28;32.85;100494.63;4131644;28;20128;-70
2022/07/20 08:38:57;;;;;;;8.40;3.90;;;;;;;30.29;32.81;100499.03;4131633;28;20042;-71
2022/07/20 08:41:02;;;;;;;10.93;4.28;;;;;;;30.25;32.17;100500.19;4131776;28;20046;-71
2022/07/20 08:43:06;;;;;;;8.60;4.05;;;;;;;30.22;32.02;100511.13;4130770;28;20056;-73
2022/07/20 08:45:10;;;;;;;;;;;;;;;30.17;32.28;100515.06;4130777;28;20097;-72
2022/07/20 08:47:15;;;;;;;5.72;3.70;;;;;;;30.25;31.59;100513.59;4130601;28;19922;-69
2022/07/20 08:49:19;;;;;;;6.72;4.03;;;;;;;30.38;32.06;100510.09;4131479;28;20117;-70
2022/07/20 08:51:22;;;;;;;;;;;;;;;30.35;31.68;100513.00;4131972;28;20050;-69
2022/07/20 08:53:25;;;;;;;9.98;5.25;;;;;;;30.48;31.34;100513.91;4130633;28;20401;-69
2022/07/20 08:55:29;;;;;;;6.75;4.03;;;;;;;30.46;32.22;100515.81;4130207;28;20084;-70
2022/07/20 08:57:33;;;;;;;21.58;5.93;;;;;;;30.56;31.41;100511.56;4130053;28;20136;-69
2022/07/20 08:59:36;;;;;;;8.75;5.05;;;;;;;30.60;32.04;100514.88;4131360;28;20051;-71
2022/07/20 09:02:01;;;;;;;8.35;3.75;;;;;;;30.67;31.85;100518.84;4129674;28;20141;-71
2022/07/20 09:04:10;;;;;;;6.82;4.10;;;;;;;30.69;31.83;100510.69;4131358;28;20054;-70
2022/07/20 09:06:18;;;;;;;9.95;4.13;;;;;;;30.73;31.66;100506.84;4131261;28;20417;-70
2022/07/20 09:08:21;;;;;;;6.00;3.70;;;;;;;30.76;32.40;100512.84;4131439;28;20572;-71
2022/07/20 09:10:26;;;;;;;6.65;4.00;;;;;;;30.77;31.54;100514.56;4131123;28;20077;-72
2022/07/20 09:12:28;;;;;;;11.57;4.32;;;;;;;30.81;31.91;100513.38;4130416;28;20075;-70
2022/07/20 09:14:42;;;;;;;7.47;4.10;;;;;;;30.94;32.04;100517.88;4131022;28;20096;-71
2022/07/20 09:16:47;;;;;;;8.45;4.65;;;;;;;31.03;31.77;100519.09;4131218;28;20038;-70
2022/07/20 09:18:50;;;;;;;7.65;4.10;;;;;;;31.08;31.40;100516.94;4131098;28;20448;-71
2022/07/20 09:20:57;;;;;;;14.43;5.53;;;;;;;31.12;31.17;100516.59;4131361;28;20042;-70
2022/07/20 09:23:01;;;;;;;9.70;4.53;;;;;;;31.19;30.82;100518.84;4130331;28;20042;-70
2022/07/20 09:25:09;;;;;;;9.30;4.75;;;;;;;31.30;31.35;100514.41;4113962;28;20049;-70
2022/07/20 09:27:12;;;;;;;8.82;4.40;;;;;;;31.31;30.89;100513.47;4129699;28;20043;-71
2022/07/20 09:29:15;;;;;;;15.68;4.88;;;;;;;31.43;31.03;100508.16;4129812;28;20049;-71
2022/07/20 09:31:20;;;;;;;8.73;4.55;;;;;;;31.53;31.14;100511.91;4131029;28;20504;-70
2022/07/20 09:33:27;;;;;;;8.55;4.35;;;;;;;31.64;31.19;100512.00;4129028;28;20046;-71
2022/07/20 09:35:33;;;;;;;10.23;4.82;;;;;;;31.81;31.01;100508.03;4131127;28;20038;-70
2022/07/20 09:37:40;;;;;;;10.10;5.05;;;;;;;31.80;30.65;100508.16;4131168;28;20448;-70
2022/07/20 09:40:00;;;;;;;7.72;5.03;;;;;;;31.81;30.78;100502.66;4129891;28;20045;-70